sensor_id;sensor_type;location;lat;lon;timestamp;P1;durP1;ratioP1;P2;durP2;ratioP2
41434;SDS011;27177;22.262;114.192;2022-08-02T00:10:41;2.20;;;1.75;;
41434;SDS011;27177;22.262;114.192;2022-08-02T00:18:19;1.60;;;1.50;;
41434;SDS011;27177;22.262;114.192;2022-08-02T00:20:46;2.40;;;1.73;;
41434;SDS011;27177;22.262;114.192;2022-08-02T00:28:24;2.70;;;1.80;;
41434;SDS011;27177;22.262;114.192;2022-08-02T00:30:51;3.40;;;1.60;;
41434;SDS011;27177;22.262;114.192;2022-08-02T00:33:28;2.33;;;1.67;;
41434;SDS011;27177;22.262;114.192;2022-08-02T00:38:36;2.40;;;1.70;;
41434;SDS011;27177;22.262;114.192;2022-08-02T00:51:20;3.25;;;1.67;;
41434;SDS011;27177;22.262;114.192;2022-08-02T00:53:47;1.58;;;1.40;;
41434;SDS011;27177;22.262;114.192;2022-08-02T00:56:14;1.58;;;1.35;;
41434;SDS011;27177;22.262;114.192;2022-08-02T00:58:41;3.72;;;1.33;;
41434;SDS011;27177;22.262;114.192;2022-08-02T01:01:08;1.75;;;1.50;;
41434;SDS011;27177;22.262;114.192;2022-08-02T01:03:36;3.42;;;1.73;;
41434;SDS011;27177;22.262;114.192;2022-08-02T01:06:03;5.80;;;1.73;;
41434;SDS011;27177;22.262;114.192;2022-08-02T01:08:30;4.38;;;2.17;;
41434;SDS011;27177;22.262;114.192;2022-08-02T01:10:57;3.60;;;2.30;;
41434;SDS011;27177;22.262;114.192;2022-08-02T01:13:24;3.92;;;2.60;;
41434;SDS011;27177;22.262;114.192;2022-08-02T01:15:54;5.28;;;2.70;;
41434;SDS011;27177;22.262;114.192;2022-08-02T01:18:29;4.35;;;2.85;;
41434;SDS011;27177;22.262;114.192;2022-08-02T01:24:10;4.60;;;3.72;;
41434;SDS011;27177;22.262;114.192;2022-08-02T01:27:04;4.32;;;3.53;;
41434;SDS011;27177;22.262;114.192;2022-08-02T01:29:44;4.35;;;3.95;;
41434;SDS011;27177;22.262;114.192;2022-08-02T01:32:22;4.43;;;3.20;;
41434;SDS011;27177;22.262;114.192;2022-08-02T01:34:59;3.47;;;3.08;;
41434;SDS011;27177;22.262;114.192;2022-08-02T01:37:34;3.13;;;2.85;;
41434;SDS011;27177;22.262;114.192;2022-08-02T01:40:09;3.35;;;2.80;;
41434;SDS011;27177;22.262;114.192;2022-08-02T01:42:40;4.15;;;2.97;;
41434;SDS011;27177;22.262;114.192;2022-08-02T01:45:11;3.25;;;2.88;;
41434;SDS011;27177;22.262;114.192;2022-08-02T01:47:40;3.60;;;3.00;;
41434;SDS011;27177;22.262;114.192;2022-08-02T01:50:11;4.25;;;3.50;;
41434;SDS011;27177;22.262;114.192;2022-08-02T01:52:42;4.03;;;3.13;;
41434;SDS011;27177;22.262;114.192;2022-08-02T01:55:15;3.05;;;2.50;;
41434;SDS011;27177;22.262;114.192;2022-08-02T01:58:00;3.05;;;2.33;;
41434;SDS011;27177;22.262;114.192;2022-08-02T02:00:30;4.10;;;2.20;;
41434;SDS011;27177;22.262;114.192;2022-08-02T02:02:59;2.97;;;2.40;;
41434;SDS011;27177;22.262;114.192;2022-08-02T02:05:30;2.83;;;2.15;;
41434;SDS011;27177;22.262;114.192;2022-08-02T02:07:59;3.33;;;2.42;;
41434;SDS011;27177;22.262;114.192;2022-08-02T02:10:29;4.43;;;2.13;;
41434;SDS011;27177;22.262;114.192;2022-08-02T02:13:05;2.67;;;2.30;;
41434;SDS011;27177;22.262;114.192;2022-08-02T02:15:34;3.97;;;2.22;;
41434;SDS011;27177;22.262;114.192;2022-08-02T02:18:05;5.25;;;2.25;;
41434;SDS011;27177;22.262;114.192;2022-08-02T02:20:33;4.30;;;2.15;;
41434;SDS011;27177;22.262;114.192;2022-08-02T02:23:03;5.85;;;2.40;;
41434;SDS011;27177;22.262;114.192;2022-08-02T02:25:30;2.72;;;2.00;;
41434;SDS011;27177;22.262;114.192;2022-08-02T02:28:43;2.85;;;1.77;;
41434;SDS011;27177;22.262;114.192;2022-08-02T02:30:59;2.55;;;1.80;;
41434;SDS011;27177;22.262;114.192;2022-08-02T02:36:15;2.80;;;1.80;;
41434;SDS011;27177;22.262;114.192;2022-08-02T02:38:44;2.30;;;1.70;;
41434;SDS011;27177;22.262;114.192;2022-08-02T02:41:13;2.72;;;1.70;;
41434;SDS011;27177;22.262;114.192;2022-08-02T02:43:42;1.80;;;1.60;;
41434;SDS011;27177;22.262;114.192;2022-08-02T02:46:11;2.15;;;1.90;;
41434;SDS011;27177;22.262;114.192;2022-08-02T02:48:45;3.30;;;1.88;;
41434;SDS011;27177;22.262;114.192;2022-08-02T02:51:16;2.92;;;1.70;;
41434;SDS011;27177;22.262;114.192;2022-08-02T02:53:46;2.50;;;1.70;;
41434;SDS011;27177;22.262;114.192;2022-08-02T02:56:16;2.50;;;1.65;;
41434;SDS011;27177;22.262;114.192;2022-08-02T02:58:44;1.98;;;1.48;;
41434;SDS011;27177;22.262;114.192;2022-08-02T03:01:13;2.78;;;1.45;;
41434;SDS011;27177;22.262;114.192;2022-08-02T03:03:53;1.67;;;1.45;;
41434;SDS011;27177;22.262;114.192;2022-08-02T03:06:21;1.65;;;1.50;;
41434;SDS011;27177;22.262;114.192;2022-08-02T03:08:48;3.45;;;1.90;;
41434;SDS011;27177;22.262;114.192;2022-08-02T03:11:16;3.70;;;1.63;;
41434;SDS011;27177;22.262;114.192;2022-08-02T03:13:44;2.42;;;1.80;;
41434;SDS011;27177;22.262;114.192;2022-08-02T03:16:11;6.07;;;1.63;;
41434;SDS011;27177;22.262;114.192;2022-08-02T03:18:40;3.97;;;1.90;;
41434;SDS011;27177;22.262;114.192;2022-08-02T03:21:09;2.67;;;1.70;;
41434;SDS011;27177;22.262;114.192;2022-08-02T03:23:38;4.03;;;1.65;;
41434;SDS011;27177;22.262;114.192;2022-08-02T03:26:08;1.98;;;1.50;;
41434;SDS011;27177;22.262;114.192;2022-08-02T03:28:35;2.63;;;1.67;;
41434;SDS011;27177;22.262;114.192;2022-08-02T03:31:02;2.75;;;1.50;;
41434;SDS011;27177;22.262;114.192;2022-08-02T03:33:30;3.33;;;1.90;;
41434;SDS011;27177;22.262;114.192;2022-08-02T03:35:59;2.20;;;1.40;;
41434;SDS011;27177;22.262;114.192;2022-08-02T03:38:30;3.05;;;1.50;;
41434;SDS011;27177;22.262;114.192;2022-08-02T03:40:58;2.20;;;1.92;;
41434;SDS011;27177;22.262;114.192;2022-08-02T03:43:28;2.30;;;1.50;;
41434;SDS011;27177;22.262;114.192;2022-08-02T03:45:55;1.42;;;1.33;;
41434;SDS011;27177;22.262;114.192;2022-08-02T03:48:24;1.60;;;1.23;;
41434;SDS011;27177;22.262;114.192;2022-08-02T03:50:54;3.05;;;1.70;;
41434;SDS011;27177;22.262;114.192;2022-08-02T03:53:21;2.60;;;1.70;;
41434;SDS011;27177;22.262;114.192;2022-08-02T03:55:49;1.58;;;1.48;;
41434;SDS011;27177;22.262;114.192;2022-08-02T03:58:20;3.22;;;1.85;;
41434;SDS011;27177;22.262;114.192;2022-08-02T04:00:48;2.70;;;1.90;;
41434;SDS011;27177;22.262;114.192;2022-08-02T04:03:17;2.63;;;1.50;;
41434;SDS011;27177;22.262;114.192;2022-08-02T04:05:44;2.10;;;1.50;;
41434;SDS011;27177;22.262;114.192;2022-08-02T04:08:11;1.45;;;1.30;;
41434;SDS011;27177;22.262;114.192;2022-08-02T04:10:38;1.88;;;1.40;;
41434;SDS011;27177;22.262;114.192;2022-08-02T04:13:26;2.58;;;1.40;;
41434;SDS011;27177;22.262;114.192;2022-08-02T04:16:38;3.33;;;1.63;;
41434;SDS011;27177;22.262;114.192;2022-08-02T04:18:57;1.83;;;1.60;;
41434;SDS011;27177;22.262;114.192;2022-08-02T04:21:28;3.83;;;1.80;;
41434;SDS011;27177;22.262;114.192;2022-08-02T04:24:05;1.67;;;1.38;;
41434;SDS011;27177;22.262;114.192;2022-08-02T04:26:34;1.70;;;1.40;;
41434;SDS011;27177;22.262;114.192;2022-08-02T04:29:02;2.85;;;1.55;;
41434;SDS011;27177;22.262;114.192;2022-08-02T04:31:30;3.38;;;1.73;;
41434;SDS011;27177;22.262;114.192;2022-08-02T04:33:58;1.40;;;1.30;;
41434;SDS011;27177;22.262;114.192;2022-08-02T04:36:26;1.50;;;1.40;;
41434;SDS011;27177;22.262;114.192;2022-08-02T04:38:53;1.58;;;1.35;;
41434;SDS011;27177;22.262;114.192;2022-08-02T04:41:35;2.58;;;1.63;;
41434;SDS011;27177;22.262;114.192;2022-08-02T04:44:06;1.92;;;1.50;;
41434;SDS011;27177;22.262;114.192;2022-08-02T04:46:34;1.90;;;1.65;;
41434;SDS011;27177;22.262;114.192;2022-08-02T04:49:02;2.88;;;2.00;;
41434;SDS011;27177;22.262;114.192;2022-08-02T04:51:29;3.63;;;2.05;;
41434;SDS011;27177;22.262;114.192;2022-08-02T04:53:56;3.08;;;2.20;;
41434;SDS011;27177;22.262;114.192;2022-08-02T04:56:23;3.97;;;2.20;;
41434;SDS011;27177;22.262;114.192;2022-08-02T04:58:50;4.05;;;2.20;;
41434;SDS011;27177;22.262;114.192;2022-08-02T05:01:17;5.47;;;2.85;;
41434;SDS011;27177;22.262;114.192;2022-08-02T05:03:44;2.70;;;2.05;;
41434;SDS011;27177;22.262;114.192;2022-08-02T05:06:11;3.25;;;2.03;;
41434;SDS011;27177;22.262;114.192;2022-08-02T05:08:38;6.07;;;3.17;;
41434;SDS011;27177;22.262;114.192;2022-08-02T05:11:05;4.47;;;2.53;;
41434;SDS011;27177;22.262;114.192;2022-08-02T05:13:32;3.45;;;2.58;;
41434;SDS011;27177;22.262;114.192;2022-08-02T05:15:59;5.18;;;2.22;;
41434;SDS011;27177;22.262;114.192;2022-08-02T05:18:27;5.35;;;2.42;;
41434;SDS011;27177;22.262;114.192;2022-08-02T05:20:55;3.53;;;2.22;;
41434;SDS011;27177;22.262;114.192;2022-08-02T05:23:22;2.55;;;2.28;;
41434;SDS011;27177;22.262;114.192;2022-08-02T05:25:49;3.95;;;2.33;;
41434;SDS011;27177;22.262;114.192;2022-08-02T05:28:16;3.63;;;2.50;;
41434;SDS011;27177;22.262;114.192;2022-08-02T05:30:43;3.30;;;2.15;;
41434;SDS011;27177;22.262;114.192;2022-08-02T05:33:10;4.75;;;2.30;;
41434;SDS011;27177;22.262;114.192;2022-08-02T05:35:37;4.35;;;2.65;;
41434;SDS011;27177;22.262;114.192;2022-08-02T05:38:04;3.25;;;2.30;;
41434;SDS011;27177;22.262;114.192;2022-08-02T05:40:31;4.28;;;2.40;;
41434;SDS011;27177;22.262;114.192;2022-08-02T05:42:58;4.25;;;2.53;;
41434;SDS011;27177;22.262;114.192;2022-08-02T05:45:25;3.92;;;2.50;;
41434;SDS011;27177;22.262;114.192;2022-08-02T05:47:52;4.78;;;2.50;;
41434;SDS011;27177;22.262;114.192;2022-08-02T05:50:19;2.92;;;2.10;;
41434;SDS011;27177;22.262;114.192;2022-08-02T05:52:59;2.75;;;2.28;;
41434;SDS011;27177;22.262;114.192;2022-08-02T05:55:46;3.83;;;2.45;;
41434;SDS011;27177;22.262;114.192;2022-08-02T06:00:51;5.05;;;2.67;;
41434;SDS011;27177;22.262;114.192;2022-08-02T06:08:30;1.88;;;1.50;;
41434;SDS011;27177;22.262;114.192;2022-08-02T06:11:07;2.72;;;1.80;;
41434;SDS011;27177;22.262;114.192;2022-08-02T06:13:38;3.00;;;1.77;;
41434;SDS011;27177;22.262;114.192;2022-08-02T06:16:07;2.42;;;1.55;;
41434;SDS011;27177;22.262;114.192;2022-08-02T06:39:30;1.90;;;1.30;;
41434;SDS011;27177;22.262;114.192;2022-08-02T06:42:14;3.38;;;2.00;;
41434;SDS011;27177;22.262;114.192;2022-08-02T06:49:57;1.98;;;1.35;;
41434;SDS011;27177;22.262;114.192;2022-08-02T06:52:25;2.35;;;1.45;;
41434;SDS011;27177;22.262;114.192;2022-08-02T06:57:28;2.40;;;1.58;;
41434;SDS011;27177;22.262;114.192;2022-08-02T06:59:56;1.50;;;1.40;;
41434;SDS011;27177;22.262;114.192;2022-08-02T07:05:01;1.42;;;1.33;;
41434;SDS011;27177;22.262;114.192;2022-08-02T07:15:18;1.60;;;1.50;;
41434;SDS011;27177;22.262;114.192;2022-08-02T07:17:45;1.50;;;1.40;;
41434;SDS011;27177;22.262;114.192;2022-08-02T07:20:12;1.45;;;1.17;;
41434;SDS011;27177;22.262;114.192;2022-08-02T07:22:40;1.63;;;1.20;;
41434;SDS011;27177;22.262;114.192;2022-08-02T07:25:07;4.13;;;1.15;;
41434;SDS011;27177;22.262;114.192;2022-08-02T07:27:35;2.97;;;1.63;;
41434;SDS011;27177;22.262;114.192;2022-08-02T07:30:03;1.88;;;1.30;;
41434;SDS011;27177;22.262;114.192;2022-08-02T07:32:31;1.42;;;1.33;;
41434;SDS011;27177;22.262;114.192;2022-08-02T07:34:59;3.58;;;1.58;;
41434;SDS011;27177;22.262;114.192;2022-08-02T07:42:37;3.03;;;1.38;;
41434;SDS011;27177;22.262;114.192;2022-08-02T07:45:05;1.63;;;1.20;;
41434;SDS011;27177;22.262;114.192;2022-08-02T07:47:35;1.33;;;1.23;;
41434;SDS011;27177;22.262;114.192;2022-08-02T07:50:04;2.00;;;1.50;;
41434;SDS011;27177;22.262;114.192;2022-08-02T07:52:32;2.00;;;1.40;;
41434;SDS011;27177;22.262;114.192;2022-08-02T07:57:34;4.32;;;2.03;;
41434;SDS011;27177;22.262;114.192;2022-08-02T08:00:03;2.00;;;1.40;;
41434;SDS011;27177;22.262;114.192;2022-08-02T08:02:31;1.50;;;1.20;;
41434;SDS011;27177;22.262;114.192;2022-08-02T08:04:58;2.80;;;1.35;;
41434;SDS011;27177;22.262;114.192;2022-08-02T08:07:25;1.92;;;1.27;;
41434;SDS011;27177;22.262;114.192;2022-08-02T08:09:53;2.60;;;1.20;;
41434;SDS011;27177;22.262;114.192;2022-08-02T08:12:20;2.17;;;1.30;;
41434;SDS011;27177;22.262;114.192;2022-08-02T08:14:47;1.33;;;1.08;;
41434;SDS011;27177;22.262;114.192;2022-08-02T08:17:14;1.92;;;1.35;;
41434;SDS011;27177;22.262;114.192;2022-08-02T08:19:41;2.53;;;1.40;;
41434;SDS011;27177;22.262;114.192;2022-08-02T08:22:08;3.78;;;1.20;;
41434;SDS011;27177;22.262;114.192;2022-08-02T08:24:35;1.30;;;1.20;;
41434;SDS011;27177;22.262;114.192;2022-08-02T08:27:03;1.73;;;1.30;;
41434;SDS011;27177;22.262;114.192;2022-08-02T08:29:31;1.50;;;1.15;;
41434;SDS011;27177;22.262;114.192;2022-08-02T08:31:57;1.55;;;1.20;;
41434;SDS011;27177;22.262;114.192;2022-08-02T08:34:24;2.22;;;1.30;;
41434;SDS011;27177;22.262;114.192;2022-08-02T08:36:55;2.75;;;0.90;;
41434;SDS011;27177;22.262;114.192;2022-08-02T08:39:22;2.22;;;1.27;;
41434;SDS011;27177;22.262;114.192;2022-08-02T08:41:49;2.63;;;1.40;;
41434;SDS011;27177;22.262;114.192;2022-08-02T08:44:16;1.48;;;1.13;;
41434;SDS011;27177;22.262;114.192;2022-08-02T08:46:43;1.27;;;1.00;;
41434;SDS011;27177;22.262;114.192;2022-08-02T08:49:29;1.95;;;1.00;;
41434;SDS011;27177;22.262;114.192;2022-08-02T08:52:00;1.48;;;1.00;;
41434;SDS011;27177;22.262;114.192;2022-08-02T08:54:30;1.27;;;1.00;;
41434;SDS011;27177;22.262;114.192;2022-08-02T08:56:58;1.00;;;0.90;;
41434;SDS011;27177;22.262;114.192;2022-08-02T08:59:25;2.45;;;1.17;;
41434;SDS011;27177;22.262;114.192;2022-08-02T09:01:52;1.10;;;1.00;;
41434;SDS011;27177;22.262;114.192;2022-08-02T09:04:21;2.22;;;1.10;;
41434;SDS011;27177;22.262;114.192;2022-08-02T09:06:48;1.38;;;0.90;;
41434;SDS011;27177;22.262;114.192;2022-08-02T09:09:15;1.42;;;1.08;;
41434;SDS011;27177;22.262;114.192;2022-08-02T09:11:42;2.47;;;1.30;;
41434;SDS011;27177;22.262;114.192;2022-08-02T09:14:09;1.50;;;1.40;;
41434;SDS011;27177;22.262;114.192;2022-08-02T09:16:40;2.20;;;1.40;;
41434;SDS011;27177;22.262;114.192;2022-08-02T09:19:18;3.45;;;1.38;;
41434;SDS011;27177;22.262;114.192;2022-08-02T09:21:50;3.30;;;1.13;;
41434;SDS011;27177;22.262;114.192;2022-08-02T09:27:16;1.65;;;1.45;;
41434;SDS011;27177;22.262;114.192;2022-08-02T09:29:45;1.92;;;1.30;;
41434;SDS011;27177;22.262;114.192;2022-08-02T09:32:14;2.08;;;1.35;;
41434;SDS011;27177;22.262;114.192;2022-08-02T09:34:46;1.73;;;1.33;;
41434;SDS011;27177;22.262;114.192;2022-08-02T09:37:48;4.82;;;1.63;;
41434;SDS011;27177;22.262;114.192;2022-08-02T09:40:08;2.13;;;1.30;;
41434;SDS011;27177;22.262;114.192;2022-08-02T09:42:36;2.53;;;1.40;;
41434;SDS011;27177;22.262;114.192;2022-08-02T09:45:26;1.63;;;1.42;;
41434;SDS011;27177;22.262;114.192;2022-08-02T09:48:00;2.00;;;1.20;;
41434;SDS011;27177;22.262;114.192;2022-08-02T09:50:28;1.92;;;1.20;;
41434;SDS011;27177;22.262;114.192;2022-08-02T09:52:56;2.45;;;1.33;;
41434;SDS011;27177;22.262;114.192;2022-08-02T09:55:24;1.30;;;1.20;;
41434;SDS011;27177;22.262;114.192;2022-08-02T09:57:51;2.53;;;1.25;;
41434;SDS011;27177;22.262;114.192;2022-08-02T10:00:19;1.55;;;1.27;;
41434;SDS011;27177;22.262;114.192;2022-08-02T10:03:08;2.35;;;1.35;;
41434;SDS011;27177;22.262;114.192;2022-08-02T10:05:45;3.33;;;1.70;;
41434;SDS011;27177;22.262;114.192;2022-08-02T10:08:14;2.80;;;1.65;;
41434;SDS011;27177;22.262;114.192;2022-08-02T10:10:41;1.50;;;1.20;;
41434;SDS011;27177;22.262;114.192;2022-08-02T10:13:09;1.40;;;1.30;;
41434;SDS011;27177;22.262;114.192;2022-08-02T10:15:36;1.63;;;1.40;;
41434;SDS011;27177;22.262;114.192;2022-08-02T10:18:05;1.88;;;1.30;;
41434;SDS011;27177;22.262;114.192;2022-08-02T10:20:50;2.55;;;1.50;;
41434;SDS011;27177;22.262;114.192;2022-08-02T10:23:22;3.92;;;2.17;;
41434;SDS011;27177;22.262;114.192;2022-08-02T10:25:52;2.38;;;1.42;;
41434;SDS011;27177;22.262;114.192;2022-08-02T10:28:26;1.30;;;1.20;;
41434;SDS011;27177;22.262;114.192;2022-08-02T10:30:57;1.50;;;1.40;;
41434;SDS011;27177;22.262;114.192;2022-08-02T10:33:27;1.52;;;1.35;;
41434;SDS011;27177;22.262;114.192;2022-08-02T10:35:57;4.43;;;1.60;;
41434;SDS011;27177;22.262;114.192;2022-08-02T10:38:24;2.30;;;1.60;;
41434;SDS011;27177;22.262;114.192;2022-08-02T10:40:52;2.42;;;1.48;;
41434;SDS011;27177;22.262;114.192;2022-08-02T10:49:08;2.72;;;1.40;;
41434;SDS011;27177;22.262;114.192;2022-08-02T10:54:25;2.67;;;1.80;;
41434;SDS011;27177;22.262;114.192;2022-08-02T10:56:54;2.03;;;1.67;;
41434;SDS011;27177;22.262;114.192;2022-08-02T10:59:29;3.22;;;2.03;;
41434;SDS011;27177;22.262;114.192;2022-08-02T11:02:04;2.22;;;1.55;;
41434;SDS011;27177;22.262;114.192;2022-08-02T11:05:18;2.65;;;1.70;;
41434;SDS011;27177;22.262;114.192;2022-08-02T11:07:19;1.50;;;1.40;;
41434;SDS011;27177;22.262;114.192;2022-08-02T11:09:56;2.03;;;1.40;;
41434;SDS011;27177;22.262;114.192;2022-08-02T11:12:24;1.77;;;1.60;;
41434;SDS011;27177;22.262;114.192;2022-08-02T11:15:00;1.87;;;1.60;;
41434;SDS011;27177;22.262;114.192;2022-08-02T11:17:59;1.55;;;1.42;;
41434;SDS011;27177;22.262;114.192;2022-08-02T11:20:25;2.13;;;1.60;;
41434;SDS011;27177;22.262;114.192;2022-08-02T11:22:57;2.03;;;1.40;;
41434;SDS011;27177;22.262;114.192;2022-08-02T11:26:01;1.92;;;1.40;;
41434;SDS011;27177;22.262;114.192;2022-08-02T11:28:48;2.20;;;1.80;;
41434;SDS011;27177;22.262;114.192;2022-08-02T11:31:15;1.80;;;1.70;;
41434;SDS011;27177;22.262;114.192;2022-08-02T11:33:42;1.35;;;1.25;;
41434;SDS011;27177;22.262;114.192;2022-08-02T11:36:09;1.92;;;1.40;;
41434;SDS011;27177;22.262;114.192;2022-08-02T11:38:37;1.80;;;1.48;;
41434;SDS011;27177;22.262;114.192;2022-08-02T11:41:04;1.98;;;1.40;;
41434;SDS011;27177;22.262;114.192;2022-08-02T11:51:17;2.28;;;1.75;;
41434;SDS011;27177;22.262;114.192;2022-08-02T11:53:48;1.50;;;1.30;;
41434;SDS011;27177;22.262;114.192;2022-08-02T11:59:04;3.97;;;1.63;;
41434;SDS011;27177;22.262;114.192;2022-08-02T12:09:21;3.50;;;1.83;;
41434;SDS011;27177;22.262;114.192;2022-08-02T12:11:48;3.35;;;1.50;;
41434;SDS011;27177;22.262;114.192;2022-08-02T12:14:16;1.60;;;1.45;;
41434;SDS011;27177;22.262;114.192;2022-08-02T12:16:43;3.10;;;2.47;;
41434;SDS011;27177;22.262;114.192;2022-08-02T12:19:29;6.60;;;3.45;;
41434;SDS011;27177;22.262;114.192;2022-08-02T12:24:53;5.05;;;3.80;;
41434;SDS011;27177;22.262;114.192;2022-08-02T12:27:30;9.15;;;3.88;;
41434;SDS011;27177;22.262;114.192;2022-08-02T12:30:05;5.57;;;3.80;;
41434;SDS011;27177;22.262;114.192;2022-08-02T12:32:34;5.22;;;4.00;;
41434;SDS011;27177;22.262;114.192;2022-08-02T12:35:06;5.25;;;3.72;;
41434;SDS011;27177;22.262;114.192;2022-08-02T12:37:41;7.45;;;4.20;;
41434;SDS011;27177;22.262;114.192;2022-08-02T12:40:29;7.20;;;4.47;;
41434;SDS011;27177;22.262;114.192;2022-08-02T12:42:58;7.55;;;4.60;;
41434;SDS011;27177;22.262;114.192;2022-08-02T12:45:27;4.43;;;3.45;;
41434;SDS011;27177;22.262;114.192;2022-08-02T12:47:57;5.68;;;2.80;;
41434;SDS011;27177;22.262;114.192;2022-08-02T12:50:30;6.78;;;3.25;;
41434;SDS011;27177;22.262;114.192;2022-08-02T12:53:15;8.65;;;3.65;;
41434;SDS011;27177;22.262;114.192;2022-08-02T12:55:53;4.57;;;3.00;;
41434;SDS011;27177;22.262;114.192;2022-08-02T12:58:23;5.50;;;3.67;;
41434;SDS011;27177;22.262;114.192;2022-08-02T13:00:52;5.80;;;2.95;;
41434;SDS011;27177;22.262;114.192;2022-08-02T13:03:21;8.13;;;3.65;;
41434;SDS011;27177;22.262;114.192;2022-08-02T13:05:49;5.88;;;3.15;;
41434;SDS011;27177;22.262;114.192;2022-08-02T13:08:16;5.03;;;3.28;;
41434;SDS011;27177;22.262;114.192;2022-08-02T13:10:43;6.35;;;2.92;;
41434;SDS011;27177;22.262;114.192;2022-08-02T13:13:10;7.30;;;3.83;;
41434;SDS011;27177;22.262;114.192;2022-08-02T13:15:37;10.07;;;3.00;;
41434;SDS011;27177;22.262;114.192;2022-08-02T13:18:04;10.70;;;3.40;;
41434;SDS011;27177;22.262;114.192;2022-08-02T13:20:31;7.03;;;3.33;;
41434;SDS011;27177;22.262;114.192;2022-08-02T13:22:58;8.40;;;3.60;;
41434;SDS011;27177;22.262;114.192;2022-08-02T13:25:25;11.77;;;4.28;;
41434;SDS011;27177;22.262;114.192;2022-08-02T13:30:26;9.40;;;3.85;;
41434;SDS011;27177;22.262;114.192;2022-08-02T13:32:53;9.00;;;3.33;;
41434;SDS011;27177;22.262;114.192;2022-08-02T13:35:20;6.20;;;2.90;;
41434;SDS011;27177;22.262;114.192;2022-08-02T13:37:47;12.68;;;4.03;;
41434;SDS011;27177;22.262;114.192;2022-08-02T13:40:14;8.65;;;3.03;;
41434;SDS011;27177;22.262;114.192;2022-08-02T13:42:41;6.80;;;3.50;;
41434;SDS011;27177;22.262;114.192;2022-08-02T13:45:08;6.88;;;2.85;;
41434;SDS011;27177;22.262;114.192;2022-08-02T13:47:39;6.22;;;3.20;;
41434;SDS011;27177;22.262;114.192;2022-08-02T13:50:08;4.47;;;2.65;;
41434;SDS011;27177;22.262;114.192;2022-08-02T13:52:35;4.95;;;3.08;;
41434;SDS011;27177;22.262;114.192;2022-08-02T13:55:02;7.05;;;2.97;;
41434;SDS011;27177;22.262;114.192;2022-08-02T13:57:30;4.43;;;2.58;;
41434;SDS011;27177;22.262;114.192;2022-08-02T13:59:57;5.40;;;3.03;;
41434;SDS011;27177;22.262;114.192;2022-08-02T14:02:27;5.57;;;2.80;;
41434;SDS011;27177;22.262;114.192;2022-08-02T14:04:54;7.45;;;3.72;;
41434;SDS011;27177;22.262;114.192;2022-08-02T14:07:21;7.00;;;3.50;;
41434;SDS011;27177;22.262;114.192;2022-08-02T14:09:48;4.30;;;3.15;;
41434;SDS011;27177;22.262;114.192;2022-08-02T14:12:15;6.25;;;4.18;;
41434;SDS011;27177;22.262;114.192;2022-08-02T14:14:42;6.25;;;4.25;;
41434;SDS011;27177;22.262;114.192;2022-08-02T14:17:12;6.75;;;4.45;;
41434;SDS011;27177;22.262;114.192;2022-08-02T14:19:39;8.73;;;4.47;;
41434;SDS011;27177;22.262;114.192;2022-08-02T14:22:06;5.97;;;4.15;;
41434;SDS011;27177;22.262;114.192;2022-08-02T14:24:33;8.40;;;4.75;;
41434;SDS011;27177;22.262;114.192;2022-08-02T14:27:00;8.38;;;4.07;;
41434;SDS011;27177;22.262;114.192;2022-08-02T14:29:27;4.93;;;3.97;;
41434;SDS011;27177;22.262;114.192;2022-08-02T14:31:54;5.65;;;4.18;;
41434;SDS011;27177;22.262;114.192;2022-08-02T14:34:21;5.00;;;3.80;;
41434;SDS011;27177;22.262;114.192;2022-08-02T14:36:48;4.03;;;3.55;;
41434;SDS011;27177;22.262;114.192;2022-08-02T14:39:18;7.28;;;4.03;;
41434;SDS011;27177;22.262;114.192;2022-08-02T14:41:45;4.90;;;4.05;;
41434;SDS011;27177;22.262;114.192;2022-08-02T14:44:12;3.50;;;3.20;;
41434;SDS011;27177;22.262;114.192;2022-08-02T14:46:42;5.05;;;3.30;;
41434;SDS011;27177;22.262;114.192;2022-08-02T14:49:09;5.70;;;3.70;;
41434;SDS011;27177;22.262;114.192;2022-08-02T14:51:37;4.63;;;3.38;;
41434;SDS011;27177;22.262;114.192;2022-08-02T14:54:04;4.18;;;3.20;;
41434;SDS011;27177;22.262;114.192;2022-08-02T14:56:32;5.22;;;3.50;;
41434;SDS011;27177;22.262;114.192;2022-08-02T14:59:00;4.75;;;3.58;;
41434;SDS011;27177;22.262;114.192;2022-08-02T15:01:27;5.38;;;3.70;;
41434;SDS011;27177;22.262;114.192;2022-08-02T15:03:55;4.05;;;3.65;;
41434;SDS011;27177;22.262;114.192;2022-08-02T15:06:23;4.35;;;3.47;;
41434;SDS011;27177;22.262;114.192;2022-08-02T15:09:11;3.47;;;3.17;;
41434;SDS011;27177;22.262;114.192;2022-08-02T15:11:44;4.40;;;3.95;;
41434;SDS011;27177;22.262;114.192;2022-08-02T15:14:11;3.45;;;3.10;;
41434;SDS011;27177;22.262;114.192;2022-08-02T15:16:44;4.60;;;3.35;;
41434;SDS011;27177;22.262;114.192;2022-08-02T15:19:18;3.47;;;3.08;;
41434;SDS011;27177;22.262;114.192;2022-08-02T15:22:20;6.00;;;2.97;;
41434;SDS011;27177;22.262;114.192;2022-08-02T15:24:47;3.47;;;3.17;;
41434;SDS011;27177;22.262;114.192;2022-08-02T15:27:16;3.22;;;2.92;;
41434;SDS011;27177;22.262;114.192;2022-08-02T15:30:03;3.40;;;3.08;;
41434;SDS011;27177;22.262;114.192;2022-08-02T15:32:43;3.67;;;3.20;;
41434;SDS011;27177;22.262;114.192;2022-08-02T15:35:16;3.50;;;3.10;;
41434;SDS011;27177;22.262;114.192;2022-08-02T15:37:53;3.70;;;3.33;;
41434;SDS011;27177;22.262;114.192;2022-08-02T15:40:21;3.90;;;3.10;;
41434;SDS011;27177;22.262;114.192;2022-08-02T15:42:51;6.53;;;3.60;;
41434;SDS011;27177;22.262;114.192;2022-08-02T15:45:18;3.53;;;3.20;;
41434;SDS011;27177;22.262;114.192;2022-08-02T15:48:25;3.88;;;3.55;;
41434;SDS011;27177;22.262;114.192;2022-08-02T15:50:55;5.22;;;3.13;;
41434;SDS011;27177;22.262;114.192;2022-08-02T15:53:22;4.05;;;3.10;;
41434;SDS011;27177;22.262;114.192;2022-08-02T15:55:49;3.85;;;3.45;;
41434;SDS011;27177;22.262;114.192;2022-08-02T15:58:18;5.28;;;3.50;;
41434;SDS011;27177;22.262;114.192;2022-08-02T16:00:45;4.78;;;3.45;;
41434;SDS011;27177;22.262;114.192;2022-08-02T16:03:12;4.10;;;3.42;;
41434;SDS011;27177;22.262;114.192;2022-08-02T16:05:39;4.88;;;3.22;;
41434;SDS011;27177;22.262;114.192;2022-08-02T16:08:06;4.60;;;3.63;;
41434;SDS011;27177;22.262;114.192;2022-08-02T16:10:33;6.65;;;3.75;;
41434;SDS011;27177;22.262;114.192;2022-08-02T16:13:01;6.88;;;3.13;;
41434;SDS011;27177;22.262;114.192;2022-08-02T16:15:47;4.03;;;3.63;;
41434;SDS011;27177;22.262;114.192;2022-08-02T16:18:14;4.10;;;3.40;;
41434;SDS011;27177;22.262;114.192;2022-08-02T16:20:41;4.38;;;3.35;;
41434;SDS011;27177;22.262;114.192;2022-08-02T16:23:08;5.18;;;3.53;;
41434;SDS011;27177;22.262;114.192;2022-08-02T16:25:34;3.30;;;3.00;;
41434;SDS011;27177;22.262;114.192;2022-08-02T16:28:04;4.72;;;3.80;;
41434;SDS011;27177;22.262;114.192;2022-08-02T16:30:31;3.45;;;3.15;;
41434;SDS011;27177;22.262;114.192;2022-08-02T16:32:58;5.97;;;3.60;;
41434;SDS011;27177;22.262;114.192;2022-08-02T16:35:25;6.35;;;3.60;;
41434;SDS011;27177;22.262;114.192;2022-08-02T16:37:55;4.60;;;3.80;;
41434;SDS011;27177;22.262;114.192;2022-08-02T16:40:22;5.22;;;3.75;;
41434;SDS011;27177;22.262;114.192;2022-08-02T16:42:49;4.18;;;3.50;;
41434;SDS011;27177;22.262;114.192;2022-08-02T16:45:17;5.63;;;3.78;;
41434;SDS011;27177;22.262;114.192;2022-08-02T16:47:48;3.67;;;3.38;;